sensor_id;sensor_type;location;lat;lon;timestamp;P1;durP1;ratioP1;P2;durP2;ratioP2
71125;SDS011;58785;55.566;38.058;2023-07-13T00:01:51;6.80;;;2.00;;
71125;SDS011;58785;55.566;38.058;2023-07-13T00:04:18;5.88;;;1.90;;
71125;SDS011;58785;55.566;38.058;2023-07-13T00:06:46;6.90;;;2.22;;
71125;SDS011;58785;55.566;38.058;2023-07-13T00:09:12;5.77;;;1.87;;
71125;SDS011;58785;55.566;38.058;2023-07-13T00:11:42;4.80;;;1.67;;
71125;SDS011;58785;55.566;38.058;2023-07-13T00:14:09;7.05;;;1.67;;
71125;SDS011;58785;55.566;38.058;2023-07-13T00:16:37;5.38;;;1.70;;
71125;SDS011;58785;55.566;38.058;2023-07-13T00:19:06;4.85;;;1.35;;
71125;SDS011;58785;55.566;38.058;2023-07-13T00:21:31;5.40;;;1.87;;
71125;SDS011;58785;55.566;38.058;2023-07-13T00:23:58;5.30;;;1.63;;
71125;SDS011;58785;55.566;38.058;2023-07-13T00:26:25;8.45;;;1.95;;
71125;SDS011;58785;55.566;38.058;2023-07-13T00:28:51;6.10;;;1.93;;
71125;SDS011;58785;55.566;38.058;2023-07-13T00:31:17;6.80;;;2.05;;
71125;SDS011;58785;55.566;38.058;2023-07-13T00:33:43;5.30;;;1.67;;
71125;SDS011;58785;55.566;38.058;2023-07-13T00:36:09;5.97;;;2.90;;
71125;SDS011;58785;55.566;38.058;2023-07-13T00:38:36;7.23;;;1.97;;
71125;SDS011;58785;55.566;38.058;2023-07-13T00:41:02;5.70;;;2.05;;
71125;SDS011;58785;55.566;38.058;2023-07-13T00:43:29;5.80;;;2.00;;
71125;SDS011;58785;55.566;38.058;2023-07-13T00:48:23;6.43;;;1.70;;
71125;SDS011;58785;55.566;38.058;2023-07-13T00:50:53;7.00;;;1.98;;
71125;SDS011;58785;55.566;38.058;2023-07-13T00:53:22;6.68;;;2.10;;
71125;SDS011;58785;55.566;38.058;2023-07-13T00:55:51;6.25;;;2.00;;
71125;SDS011;58785;55.566;38.058;2023-07-13T00:58:19;5.10;;;1.80;;
71125;SDS011;58785;55.566;38.058;2023-07-13T01:00:45;5.93;;;1.90;;
71125;SDS011;58785;55.566;38.058;2023-07-13T01:03:14;6.47;;;1.85;;
71125;SDS011;58785;55.566;38.058;2023-07-13T01:05:40;4.78;;;1.58;;
71125;SDS011;58785;55.566;38.058;2023-07-13T01:08:05;5.77;;;1.80;;
71125;SDS011;58785;55.566;38.058;2023-07-13T01:10:31;5.53;;;2.00;;
71125;SDS011;58785;55.566;38.058;2023-07-13T01:13:05;6.18;;;2.05;;
71125;SDS011;58785;55.566;38.058;2023-07-13T01:15:44;5.73;;;2.10;;
71125;SDS011;58785;55.566;38.058;2023-07-13T01:18:14;5.18;;;2.03;;
71125;SDS011;58785;55.566;38.058;2023-07-13T01:20:59;5.20;;;1.90;;
71125;SDS011;58785;55.566;38.058;2023-07-13T01:23:28;8.80;;;2.30;;
71125;SDS011;58785;55.566;38.058;2023-07-13T01:25:56;6.88;;;2.10;;
71125;SDS011;58785;55.566;38.058;2023-07-13T01:28:23;5.73;;;2.00;;
71125;SDS011;58785;55.566;38.058;2023-07-13T01:30:52;7.50;;;2.40;;
71125;SDS011;58785;55.566;38.058;2023-07-13T01:33:19;6.05;;;1.83;;
71125;SDS011;58785;55.566;38.058;2023-07-13T01:35:45;6.60;;;1.92;;
71125;SDS011;58785;55.566;38.058;2023-07-13T01:38:12;7.67;;;1.90;;
71125;SDS011;58785;55.566;38.058;2023-07-13T01:40:40;5.97;;;2.28;;
71125;SDS011;58785;55.566;38.058;2023-07-13T01:43:05;5.60;;;2.00;;
71125;SDS011;58785;55.566;38.058;2023-07-13T01:45:31;6.57;;;2.00;;
71125;SDS011;58785;55.566;38.058;2023-07-13T01:47:58;6.85;;;2.10;;
71125;SDS011;58785;55.566;38.058;2023-07-13T01:50:24;6.72;;;1.90;;
71125;SDS011;58785;55.566;38.058;2023-07-13T01:52:51;8.48;;;1.90;;
71125;SDS011;58785;55.566;38.058;2023-07-13T01:55:17;5.63;;;1.40;;
71125;SDS011;58785;55.566;38.058;2023-07-13T01:57:42;5.70;;;1.97;;
71125;SDS011;58785;55.566;38.058;2023-07-13T02:00:09;5.82;;;1.35;;
71125;SDS011;58785;55.566;38.058;2023-07-13T02:02:36;5.23;;;1.60;;
71125;SDS011;58785;55.566;38.058;2023-07-13T02:05:02;4.60;;;1.38;;
71125;SDS011;58785;55.566;38.058;2023-07-13T02:07:29;5.32;;;1.58;;
71125;SDS011;58785;55.566;38.058;2023-07-13T02:09:54;4.83;;;1.70;;
71125;SDS011;58785;55.566;38.058;2023-07-13T02:12:20;5.30;;;1.60;;
71125;SDS011;58785;55.566;38.058;2023-07-13T02:14:46;5.38;;;1.65;;
71125;SDS011;58785;55.566;38.058;2023-07-13T02:17:12;5.10;;;1.50;;
71125;SDS011;58785;55.566;38.058;2023-07-13T02:19:38;4.82;;;1.30;;
71125;SDS011;58785;55.566;38.058;2023-07-13T02:22:04;5.85;;;1.50;;
71125;SDS011;58785;55.566;38.058;2023-07-13T02:24:30;6.87;;;1.70;;
71125;SDS011;58785;55.566;38.058;2023-07-13T02:26:55;5.05;;;1.50;;
71125;SDS011;58785;55.566;38.058;2023-07-13T02:29:21;4.33;;;1.37;;
71125;SDS011;58785;55.566;38.058;2023-07-13T02:31:47;7.30;;;1.83;;
71125;SDS011;58785;55.566;38.058;2023-07-13T02:34:13;4.72;;;1.55;;
71125;SDS011;58785;55.566;38.058;2023-07-13T02:36:39;5.90;;;1.60;;
71125;SDS011;58785;55.566;38.058;2023-07-13T02:39:05;5.80;;;1.73;;
71125;SDS011;58785;55.566;38.058;2023-07-13T02:41:32;6.28;;;1.60;;
71125;SDS011;58785;55.566;38.058;2023-07-13T02:43:58;4.93;;;1.60;;
71125;SDS011;58785;55.566;38.058;2023-07-13T02:46:29;5.97;;;1.90;;
71125;SDS011;58785;55.566;38.058;2023-07-13T02:48:56;5.40;;;1.70;;
71125;SDS011;58785;55.566;38.058;2023-07-13T02:51:21;4.93;;;1.70;;
71125;SDS011;58785;55.566;38.058;2023-07-13T02:53:47;6.07;;;1.50;;
71125;SDS011;58785;55.566;38.058;2023-07-13T02:56:13;7.20;;;1.75;;
71125;SDS011;58785;55.566;38.058;2023-07-13T02:58:39;4.60;;;1.30;;
71125;SDS011;58785;55.566;38.058;2023-07-13T03:01:08;5.05;;;1.48;;
71125;SDS011;58785;55.566;38.058;2023-07-13T03:03:35;8.37;;;2.00;;
71125;SDS011;58785;55.566;38.058;2023-07-13T03:06:02;5.85;;;1.63;;
71125;SDS011;58785;55.566;38.058;2023-07-13T03:08:30;6.40;;;1.45;;
71125;SDS011;58785;55.566;38.058;2023-07-13T03:11:00;6.13;;;1.60;;
71125;SDS011;58785;55.566;38.058;2023-07-13T03:13:27;6.45;;;1.80;;
71125;SDS011;58785;55.566;38.058;2023-07-13T03:15:53;5.83;;;1.83;;
71125;SDS011;58785;55.566;38.058;2023-07-13T03:18:18;5.50;;;1.80;;
71125;SDS011;58785;55.566;38.058;2023-07-13T03:20:44;5.95;;;1.70;;
71125;SDS011;58785;55.566;38.058;2023-07-13T03:23:10;6.32;;;1.65;;
71125;SDS011;58785;55.566;38.058;2023-07-13T03:25:36;6.13;;;1.67;;
71125;SDS011;58785;55.566;38.058;2023-07-13T03:28:02;5.28;;;1.73;;
71125;SDS011;58785;55.566;38.058;2023-07-13T03:30:29;6.00;;;1.83;;
71125;SDS011;58785;55.566;38.058;2023-07-13T03:32:54;6.23;;;1.40;;
71125;SDS011;58785;55.566;38.058;2023-07-13T03:35:20;7.03;;;1.85;;
71125;SDS011;58785;55.566;38.058;2023-07-13T03:37:46;7.93;;;1.97;;
71125;SDS011;58785;55.566;38.058;2023-07-13T03:40:12;6.35;;;1.65;;
71125;SDS011;58785;55.566;38.058;2023-07-13T03:42:38;6.20;;;1.90;;
71125;SDS011;58785;55.566;38.058;2023-07-13T03:45:03;5.90;;;1.77;;
71125;SDS011;58785;55.566;38.058;2023-07-13T03:47:30;5.93;;;1.70;;
71125;SDS011;58785;55.566;38.058;2023-07-13T03:49:56;5.60;;;1.70;;
71125;SDS011;58785;55.566;38.058;2023-07-13T03:52:22;5.73;;;1.90;;
71125;SDS011;58785;55.566;38.058;2023-07-13T03:54:48;6.00;;;1.65;;
71125;SDS011;58785;55.566;38.058;2023-07-13T03:57:14;5.30;;;1.70;;
71125;SDS011;58785;55.566;38.058;2023-07-13T03:59:39;6.45;;;1.73;;
71125;SDS011;58785;55.566;38.058;2023-07-13T04:02:05;5.20;;;1.80;;
71125;SDS011;58785;55.566;38.058;2023-07-13T04:04:31;5.25;;;1.92;;
71125;SDS011;58785;55.566;38.058;2023-07-13T04:06:57;6.17;;;1.67;;
71125;SDS011;58785;55.566;38.058;2023-07-13T04:09:24;5.45;;;1.45;;
71125;SDS011;58785;55.566;38.058;2023-07-13T04:11:50;6.45;;;1.83;;
71125;SDS011;58785;55.566;38.058;2023-07-13T04:14:16;5.55;;;1.92;;
71125;SDS011;58785;55.566;38.058;2023-07-13T04:16:42;4.67;;;1.63;;
71125;SDS011;58785;55.566;38.058;2023-07-13T04:19:08;5.32;;;1.55;;
71125;SDS011;58785;55.566;38.058;2023-07-13T04:21:35;7.07;;;1.63;;
71125;SDS011;58785;55.566;38.058;2023-07-13T04:24:02;6.30;;;1.83;;
71125;SDS011;58785;55.566;38.058;2023-07-13T04:26:29;5.93;;;1.90;;
71125;SDS011;58785;55.566;38.058;2023-07-13T04:28:55;6.30;;;1.70;;
71125;SDS011;58785;55.566;38.058;2023-07-13T04:31:22;5.22;;;1.75;;
71125;SDS011;58785;55.566;38.058;2023-07-13T04:33:48;8.02;;;1.83;;
71125;SDS011;58785;55.566;38.058;2023-07-13T04:36:15;6.88;;;1.60;;
71125;SDS011;58785;55.566;38.058;2023-07-13T04:38:42;5.33;;;1.73;;
71125;SDS011;58785;55.566;38.058;2023-07-13T04:41:08;5.93;;;2.20;;
71125;SDS011;58785;55.566;38.058;2023-07-13T04:43:36;6.07;;;1.90;;
71125;SDS011;58785;55.566;38.058;2023-07-13T04:46:06;5.68;;;1.77;;
71125;SDS011;58785;55.566;38.058;2023-07-13T04:48:33;5.22;;;1.80;;
71125;SDS011;58785;55.566;38.058;2023-07-13T04:50:59;5.63;;;1.83;;
71125;SDS011;58785;55.566;38.058;2023-07-13T04:53:25;6.65;;;1.90;;
71125;SDS011;58785;55.566;38.058;2023-07-13T04:55:52;7.90;;;1.90;;
71125;SDS011;58785;55.566;38.058;2023-07-13T04:58:18;5.87;;;1.77;;
71125;SDS011;58785;55.566;38.058;2023-07-13T05:00:44;5.45;;;2.05;;
71125;SDS011;58785;55.566;38.058;2023-07-13T05:03:09;6.75;;;2.00;;
71125;SDS011;58785;55.566;38.058;2023-07-13T05:05:35;6.17;;;1.97;;
71125;SDS011;58785;55.566;38.058;2023-07-13T05:08:01;6.30;;;2.10;;
71125;SDS011;58785;55.566;38.058;2023-07-13T05:10:27;6.47;;;1.70;;
71125;SDS011;58785;55.566;38.058;2023-07-13T05:12:53;4.90;;;1.50;;
71125;SDS011;58785;55.566;38.058;2023-07-13T05:15:20;6.68;;;2.00;;
71125;SDS011;58785;55.566;38.058;2023-07-13T05:17:47;6.15;;;2.00;;
71125;SDS011;58785;55.566;38.058;2023-07-13T05:20:14;7.03;;;2.13;;
71125;SDS011;58785;55.566;38.058;2023-07-13T05:22:41;9.45;;;1.80;;
71125;SDS011;58785;55.566;38.058;2023-07-13T05:25:07;5.60;;;1.90;;
71125;SDS011;58785;55.566;38.058;2023-07-13T05:27:34;5.30;;;1.77;;
71125;SDS011;58785;55.566;38.058;2023-07-13T05:30:01;6.80;;;2.45;;
71125;SDS011;58785;55.566;38.058;2023-07-13T05:32:31;8.03;;;2.10;;
71125;SDS011;58785;55.566;38.058;2023-07-13T05:34:57;5.10;;;1.80;;
71125;SDS011;58785;55.566;38.058;2023-07-13T05:37:23;5.60;;;2.10;;
71125;SDS011;58785;55.566;38.058;2023-07-13T05:39:49;4.87;;;1.47;;
71125;SDS011;58785;55.566;38.058;2023-07-13T05:42:15;6.60;;;1.90;;
71125;SDS011;58785;55.566;38.058;2023-07-13T05:44:41;5.20;;;1.92;;
71125;SDS011;58785;55.566;38.058;2023-07-13T05:47:06;6.10;;;1.73;;
71125;SDS011;58785;55.566;38.058;2023-07-13T05:49:32;6.13;;;1.65;;
71125;SDS011;58785;55.566;38.058;2023-07-13T05:51:58;7.13;;;1.77;;
71125;SDS011;58785;55.566;38.058;2023-07-13T05:54:23;6.45;;;2.58;;
71125;SDS011;58785;55.566;38.058;2023-07-13T05:56:52;6.43;;;1.97;;
71125;SDS011;58785;55.566;38.058;2023-07-13T05:59:18;5.40;;;1.95;;
71125;SDS011;58785;55.566;38.058;2023-07-13T06:01:44;5.30;;;1.77;;
71125;SDS011;58785;55.566;38.058;2023-07-13T06:04:09;5.70;;;1.90;;
71125;SDS011;58785;55.566;38.058;2023-07-13T06:06:35;5.80;;;2.20;;
71125;SDS011;58785;55.566;38.058;2023-07-13T06:09:01;5.80;;;2.00;;
71125;SDS011;58785;55.566;38.058;2023-07-13T06:11:27;7.18;;;1.98;;
71125;SDS011;58785;55.566;38.058;2023-07-13T06:13:55;4.85;;;1.63;;
71125;SDS011;58785;55.566;38.058;2023-07-13T06:16:21;7.95;;;2.42;;
71125;SDS011;58785;55.566;38.058;2023-07-13T06:18:47;5.87;;;2.03;;
71125;SDS011;58785;55.566;38.058;2023-07-13T06:21:14;5.15;;;2.10;;
71125;SDS011;58785;55.566;38.058;2023-07-13T06:23:41;5.72;;;2.15;;
71125;SDS011;58785;55.566;38.058;2023-07-13T06:26:08;9.07;;;1.75;;
71125;SDS011;58785;55.566;38.058;2023-07-13T06:28:34;6.13;;;2.40;;
71125;SDS011;58785;55.566;38.058;2023-07-13T06:31:01;6.95;;;2.00;;
71125;SDS011;58785;55.566;38.058;2023-07-13T06:33:27;5.63;;;2.20;;
71125;SDS011;58785;55.566;38.058;2023-07-13T06:35:53;7.60;;;2.13;;
71125;SDS011;58785;55.566;38.058;2023-07-13T06:38:21;5.97;;;2.20;;
71125;SDS011;58785;55.566;38.058;2023-07-13T06:40:47;6.15;;;2.08;;
71125;SDS011;58785;55.566;38.058;2023-07-13T06:43:13;5.90;;;2.10;;
71125;SDS011;58785;55.566;38.058;2023-07-13T06:45:43;6.35;;;2.20;;
71125;SDS011;58785;55.566;38.058;2023-07-13T06:48:15;7.20;;;1.60;;
71125;SDS011;58785;55.566;38.058;2023-07-13T06:50:42;10.65;;;2.30;;
71125;SDS011;58785;55.566;38.058;2023-07-13T06:53:08;6.40;;;1.80;;
71125;SDS011;58785;55.566;38.058;2023-07-13T06:55:35;6.20;;;2.10;;
71125;SDS011;58785;55.566;38.058;2023-07-13T06:58:01;9.50;;;3.13;;
71125;SDS011;58785;55.566;38.058;2023-07-13T07:00:26;6.75;;;2.00;;
71125;SDS011;58785;55.566;38.058;2023-07-13T07:02:52;7.03;;;1.80;;
71125;SDS011;58785;55.566;38.058;2023-07-13T07:05:18;11.23;;;2.17;;
71125;SDS011;58785;55.566;38.058;2023-07-13T07:07:46;5.68;;;1.95;;
71125;SDS011;58785;55.566;38.058;2023-07-13T07:10:12;8.27;;;2.20;;
71125;SDS011;58785;55.566;38.058;2023-07-13T07:12:38;6.57;;;2.27;;
71125;SDS011;58785;55.566;38.058;2023-07-13T07:15:04;7.55;;;2.17;;
71125;SDS011;58785;55.566;38.058;2023-07-13T07:17:30;6.18;;;2.00;;
71125;SDS011;58785;55.566;38.058;2023-07-13T07:19:56;6.37;;;1.70;;
71125;SDS011;58785;55.566;38.058;2023-07-13T07:22:22;8.45;;;1.75;;
71125;SDS011;58785;55.566;38.058;2023-07-13T07:24:47;5.77;;;1.80;;
71125;SDS011;58785;55.566;38.058;2023-07-13T07:27:13;7.85;;;2.08;;
71125;SDS011;58785;55.566;38.058;2023-07-13T07:29:39;6.07;;;2.42;;
71125;SDS011;58785;55.566;38.058;2023-07-13T07:32:05;5.63;;;2.00;;
71125;SDS011;58785;55.566;38.058;2023-07-13T07:34:31;7.13;;;2.30;;
71125;SDS011;58785;55.566;38.058;2023-07-13T07:36:59;7.13;;;2.00;;
71125;SDS011;58785;55.566;38.058;2023-07-13T07:39:26;8.23;;;2.07;;
71125;SDS011;58785;55.566;38.058;2023-07-13T07:41:52;7.18;;;1.65;;
71125;SDS011;58785;55.566;38.058;2023-07-13T07:44:18;7.30;;;2.17;;
71125;SDS011;58785;55.566;38.058;2023-07-13T07:46:44;4.97;;;1.85;;
71125;SDS011;58785;55.566;38.058;2023-07-13T07:49:10;7.43;;;1.93;;
71125;SDS011;58785;55.566;38.058;2023-07-13T07:51:36;5.18;;;2.08;;
71125;SDS011;58785;55.566;38.058;2023-07-13T07:54:02;7.00;;;1.92;;
71125;SDS011;58785;55.566;38.058;2023-07-13T07:56:28;7.10;;;2.00;;
71125;SDS011;58785;55.566;38.058;2023-07-13T07:58:54;6.13;;;1.85;;
71125;SDS011;58785;55.566;38.058;2023-07-13T08:01:20;5.47;;;1.90;;
71125;SDS011;58785;55.566;38.058;2023-07-13T08:03:46;6.65;;;2.10;;
71125;SDS011;58785;55.566;38.058;2023-07-13T08:06:12;5.95;;;2.08;;
71125;SDS011;58785;55.566;38.058;2023-07-13T08:08:38;5.93;;;2.13;;
71125;SDS011;58785;55.566;38.058;2023-07-13T08:11:05;6.40;;;1.83;;
71125;SDS011;58785;55.566;38.058;2023-07-13T08:13:32;7.43;;;2.20;;
71125;SDS011;58785;55.566;38.058;2023-07-13T08:15:58;9.10;;;2.10;;
71125;SDS011;58785;55.566;38.058;2023-07-13T08:18:25;7.53;;;2.08;;
71125;SDS011;58785;55.566;38.058;2023-07-13T08:20:51;8.60;;;2.30;;
71125;SDS011;58785;55.566;38.058;2023-07-13T08:23:17;6.73;;;2.17;;
71125;SDS011;58785;55.566;38.058;2023-07-13T08:25:43;5.35;;;1.63;;
71125;SDS011;58785;55.566;38.058;2023-07-13T08:28:16;6.80;;;2.08;;
71125;SDS011;58785;55.566;38.058;2023-07-13T08:30:42;6.67;;;1.90;;
71125;SDS011;58785;55.566;38.058;2023-07-13T08:33:07;6.07;;;1.95;;
71125;SDS011;58785;55.566;38.058;2023-07-13T08:35:33;5.87;;;1.93;;
71125;SDS011;58785;55.566;38.058;2023-07-13T08:37:59;7.22;;;2.30;;
71125;SDS011;58785;55.566;38.058;2023-07-13T08:40:25;7.70;;;2.45;;
71125;SDS011;58785;55.566;38.058;2023-07-13T08:42:57;6.00;;;2.20;;
71125;SDS011;58785;55.566;38.058;2023-07-13T08:45:33;7.05;;;2.28;;
71125;SDS011;58785;55.566;38.058;2023-07-13T08:50:47;7.22;;;2.28;;
71125;SDS011;58785;55.566;38.058;2023-07-13T08:53:21;11.82;;;2.20;;
71125;SDS011;58785;55.566;38.058;2023-07-13T08:55:50;6.53;;;2.23;;
71125;SDS011;58785;55.566;38.058;2023-07-13T08:58:22;7.15;;;2.40;;
71125;SDS011;58785;55.566;38.058;2023-07-13T09:01:06;5.97;;;1.90;;
71125;SDS011;58785;55.566;38.058;2023-07-13T09:03:37;6.45;;;1.73;;
71125;SDS011;58785;55.566;38.058;2023-07-13T09:06:16;7.65;;;1.95;;
71125;SDS011;58785;55.566;38.058;2023-07-13T09:08:54;6.47;;;1.83;;
71125;SDS011;58785;55.566;38.058;2023-07-13T09:11:32;6.22;;;2.00;;
71125;SDS011;58785;55.566;38.058;2023-07-13T09:14:29;7.38;;;1.90;;
71125;SDS011;58785;55.566;38.058;2023-07-13T09:17:08;5.78;;;1.70;;
71125;SDS011;58785;55.566;38.058;2023-07-13T09:19:57;6.45;;;2.28;;
71125;SDS011;58785;55.566;38.058;2023-07-13T09:22:27;5.47;;;1.90;;
71125;SDS011;58785;55.566;38.058;2023-07-13T09:25:00;7.18;;;1.73;;
71125;SDS011;58785;55.566;38.058;2023-07-13T09:27:45;4.80;;;1.65;;
71125;SDS011;58785;55.566;38.058;2023-07-13T09:32:39;6.32;;;1.77;;
71125;SDS011;58785;55.566;38.058;2023-07-13T09:35:20;6.80;;;1.97;;
71125;SDS011;58785;55.566;38.058;2023-07-13T09:37:49;5.97;;;2.10;;
71125;SDS011;58785;55.566;38.058;2023-07-13T09:40:24;5.20;;;2.00;;
71125;SDS011;58785;55.566;38.058;2023-07-13T09:42:58;5.57;;;2.08;;
71125;SDS011;58785;55.566;38.058;2023-07-13T09:45:27;5.40;;;2.27;;
71125;SDS011;58785;55.566;38.058;2023-07-13T09:47:59;5.93;;;2.20;;
71125;SDS011;58785;55.566;38.058;2023-07-13T09:50:30;7.57;;;2.60;;
71125;SDS011;58785;55.566;38.058;2023-07-13T09:52:55;6.33;;;2.30;;
71125;SDS011;58785;55.566;38.058;2023-07-13T09:55:36;7.47;;;2.40;;
71125;SDS011;58785;55.566;38.058;2023-07-13T09:58:06;6.45;;;2.58;;
71125;SDS011;58785;55.566;38.058;2023-07-13T10:00:37;7.75;;;3.10;;
71125;SDS011;58785;55.566;38.058;2023-07-13T10:05:40;12.07;;;2.72;;
71125;SDS011;58785;55.566;38.058;2023-07-13T10:08:24;6.57;;;2.77;;
71125;SDS011;58785;55.566;38.058;2023-07-13T10:10:54;7.13;;;2.33;;
71125;SDS011;58785;55.566;38.058;2023-07-13T10:13:35;6.00;;;2.60;;
71125;SDS011;58785;55.566;38.058;2023-07-13T10:16:06;6.85;;;2.40;;
71125;SDS011;58785;55.566;38.058;2023-07-13T10:19:17;5.75;;;1.90;;
71125;SDS011;58785;55.566;38.058;2023-07-13T10:21:26;10.47;;;3.50;;
71125;SDS011;58785;55.566;38.058;2023-07-13T10:24:15;7.03;;;2.40;;
71125;SDS011;58785;55.566;38.058;2023-07-13T10:29:20;5.80;;;2.50;;
71125;SDS011;58785;55.566;38.058;2023-07-13T10:31:49;5.90;;;2.22;;
71125;SDS011;58785;55.566;38.058;2023-07-13T10:34:15;7.57;;;2.10;;
71125;SDS011;58785;55.566;38.058;2023-07-13T10:36:43;8.60;;;1.92;;
71125;SDS011;58785;55.566;38.058;2023-07-13T10:39:20;8.82;;;2.40;;
71125;SDS011;58785;55.566;38.058;2023-07-13T10:42:00;7.85;;;2.40;;
71125;SDS011;58785;55.566;38.058;2023-07-13T10:44:29;8.55;;;2.40;;
71125;SDS011;58785;55.566;38.058;2023-07-13T10:47:01;8.77;;;2.10;;
71125;SDS011;58785;55.566;38.058;2023-07-13T10:49:32;9.38;;;2.60;;
71125;SDS011;58785;55.566;38.058;2023-07-13T10:52:00;6.50;;;2.20;;
71125;SDS011;58785;55.566;38.058;2023-07-13T10:54:30;7.82;;;2.50;;
71125;SDS011;58785;55.566;38.058;2023-07-13T10:59:31;7.88;;;2.40;;
71125;SDS011;58785;55.566;38.058;2023-07-13T11:04:45;8.45;;;2.33;;
71125;SDS011;58785;55.566;38.058;2023-07-13T11:07:22;6.93;;;2.50;;
71125;SDS011;58785;55.566;38.058;2023-07-13T11:09:54;6.60;;;2.55;;
71125;SDS011;58785;55.566;38.058;2023-07-13T11:19:50;8.43;;;2.28;;
71125;SDS011;58785;55.566;38.058;2023-07-13T11:22:22;8.57;;;2.70;;
71125;SDS011;58785;55.566;38.058;2023-07-13T11:24:58;8.37;;;2.40;;
71125;SDS011;58785;55.566;38.058;2023-07-13T11:30:22;6.50;;;2.22;;
71125;SDS011;58785;55.566;38.058;2023-07-13T11:35:41;7.65;;;2.20;;
71125;SDS011;58785;55.566;38.058;2023-07-13T11:38:30;7.60;;;2.40;;
71125;SDS011;58785;55.566;38.058;2023-07-13T11:41:01;10.18;;;3.55;;
71125;SDS011;58785;55.566;38.058;2023-07-13T11:43:29;9.02;;;3.13;;
71125;SDS011;58785;55.566;38.058;2023-07-13T11:45:55;7.67;;;2.80;;
71125;SDS011;58785;55.566;38.058;2023-07-13T11:48:22;10.20;;;3.40;;
71125;SDS011;58785;55.566;38.058;2023-07-13T11:50:57;8.38;;;3.55;;
71125;SDS011;58785;55.566;38.058;2023-07-13T11:53:26;9.82;;;3.45;;
71125;SDS011;58785;55.566;38.058;2023-07-13T11:55:53;9.65;;;4.10;;
71125;SDS011;58785;55.566;38.058;2023-07-13T11:58:20;11.13;;;4.10;;
71125;SDS011;58785;55.566;38.058;2023-07-13T12:00:49;8.60;;;3.78;;
71125;SDS011;58785;55.566;38.058;2023-07-13T12:03:20;12.25;;;3.95;;
71125;SDS011;58785;55.566;38.058;2023-07-13T12:06:00;8.27;;;2.92;;
71125;SDS011;58785;55.566;38.058;2023-07-13T12:08:27;8.80;;;2.80;;
71125;SDS011;58785;55.566;38.058;2023-07-13T12:11:03;10.50;;;2.53;;
71125;SDS011;58785;55.566;38.058;2023-07-13T12:13:35;8.07;;;3.10;;
71125;SDS011;58785;55.566;38.058;2023-07-13T12:16:07;7.40;;;2.72;;
71125;SDS011;58785;55.566;38.058;2023-07-13T12:18:38;8.55;;;2.40;;
71125;SDS011;58785;55.566;38.058;2023-07-13T12:21:04;6.05;;;2.33;;
71125;SDS011;58785;55.566;38.058;2023-07-13T12:23:38;9.33;;;2.97;;
71125;SDS011;58785;55.566;38.058;2023-07-13T12:26:09;9.00;;;2.95;;
71125;SDS011;58785;55.566;38.058;2023-07-13T12:28:37;9.18;;;2.60;;
71125;SDS011;58785;55.566;38.058;2023-07-13T12:31:25;7.65;;;2.70;;
71125;SDS011;58785;55.566;38.058;2023-07-13T12:34:02;8.52;;;3.00;;
71125;SDS011;58785;55.566;38.058;2023-07-13T12:36:36;8.20;;;2.90;;
71125;SDS011;58785;55.566;38.058;2023-07-13T12:39:11;8.52;;;3.25;;
71125;SDS011;58785;55.566;38.058;2023-07-13T12:41:40;7.45;;;3.05;;
71125;SDS011;58785;55.566;38.058;2023-07-13T12:44:11;6.95;;;2.70;;
71125;SDS011;58785;55.566;38.058;2023-07-13T12:46:38;12.88;;;2.70;;
71125;SDS011;58785;55.566;38.058;2023-07-13T12:49:06;8.30;;;2.30;;
71125;SDS011;58785;55.566;38.058;2023-07-13T12:51:33;6.22;;;2.63;;
71125;SDS011;58785;55.566;38.058;2023-07-13T12:54:06;8.00;;;2.65;;
71125;SDS011;58785;55.566;38.058;2023-07-13T12:56:42;7.85;;;2.58;;
71125;SDS011;58785;55.566;38.058;2023-07-13T12:59:13;8.87;;;2.73;;
71125;SDS011;58785;55.566;38.058;2023-07-13T13:01:43;8.07;;;2.70;;
71125;SDS011;58785;55.566;38.058;2023-07-13T13:04:11;7.00;;;2.75;;
71125;SDS011;58785;55.566;38.058;2023-07-13T13:06:38;7.10;;;2.40;;
71125;SDS011;58785;55.566;38.058;2023-07-13T13:09:09;7.32;;;2.20;;
71125;SDS011;58785;55.566;38.058;2023-07-13T13:11:38;6.53;;;2.50;;
71125;SDS011;58785;55.566;38.058;2023-07-13T13:14:05;7.90;;;2.38;;
71125;SDS011;58785;55.566;38.058;2023-07-13T13:16:33;5.82;;;2.08;;
71125;SDS011;58785;55.566;38.058;2023-07-13T13:21:44;6.43;;;2.10;;
71125;SDS011;58785;55.566;38.058;2023-07-13T13:24:16;6.60;;;2.13;;
71125;SDS011;58785;55.566;38.058;2023-07-13T13:26:46;6.57;;;2.35;;
71125;SDS011;58785;55.566;38.058;2023-07-13T13:29:13;7.35;;;2.20;;
71125;SDS011;58785;55.566;38.058;2023-07-13T13:31:41;7.03;;;2.00;;
71125;SDS011;58785;55.566;38.058;2023-07-13T13:34:11;6.63;;;2.35;;
71125;SDS011;58785;55.566;38.058;2023-07-13T13:36:39;7.97;;;2.63;;
71125;SDS011;58785;55.566;38.058;2023-07-13T13:39:10;6.82;;;2.53;;
71125;SDS011;58785;55.566;38.058;2023-07-13T13:41:42;6.72;;;2.55;;
71125;SDS011;58785;55.566;38.058;2023-07-13T13:44:09;10.50;;;2.60;;
71125;SDS011;58785;55.566;38.058;2023-07-13T13:46:36;6.47;;;2.58;;
71125;SDS011;58785;55.566;38.058;2023-07-13T13:49:02;7.07;;;2.50;;
71125;SDS011;58785;55.566;38.058;2023-07-13T13:51:28;8.25;;;2.60;;
71125;SDS011;58785;55.566;38.058;2023-07-13T13:53:54;8.63;;;2.80;;
71125;SDS011;58785;55.566;38.058;2023-07-13T13:56:20;7.83;;;3.10;;
71125;SDS011;58785;55.566;38.058;2023-07-13T13:58:46;8.90;;;2.80;;
71125;SDS011;58785;55.566;38.058;2023-07-13T14:01:13;10.07;;;2.95;;
71125;SDS011;58785;55.566;38.058;2023-07-13T14:03:43;8.43;;;2.95;;
71125;SDS011;58785;55.566;38.058;2023-07-13T14:06:13;13.23;;;3.07;;
71125;SDS011;58785;55.566;38.058;2023-07-13T14:08:41;6.45;;;2.25;;
71125;SDS011;58785;55.566;38.058;2023-07-13T14:11:10;8.70;;;2.53;;
71125;SDS011;58785;55.566;38.058;2023-07-13T14:13:38;8.93;;;2.88;;
71125;SDS011;58785;55.566;38.058;2023-07-13T14:16:11;7.13;;;2.45;;
71125;SDS011;58785;55.566;38.058;2023-07-13T14:18:38;7.53;;;2.60;;
71125;SDS011;58785;55.566;38.058;2023-07-13T14:21:08;7.65;;;3.17;;
71125;SDS011;58785;55.566;38.058;2023-07-13T14:23:37;8.15;;;3.10;;
71125;SDS011;58785;55.566;38.058;2023-07-13T14:26:08;8.95;;;3.33;;
71125;SDS011;58785;55.566;38.058;2023-07-13T14:28:38;8.13;;;2.95;;
71125;SDS011;58785;55.566;38.058;2023-07-13T14:31:08;7.43;;;3.17;;
71125;SDS011;58785;55.566;38.058;2023-07-13T14:33:35;10.13;;;3.05;;
71125;SDS011;58785;55.566;38.058;2023-07-13T14:36:01;9.95;;;3.72;;
71125;SDS011;58785;55.566;38.058;2023-07-13T14:38:28;8.13;;;2.90;;
71125;SDS011;58785;55.566;38.058;2023-07-13T14:40:54;7.70;;;3.30;;
71125;SDS011;58785;55.566;38.058;2023-07-13T14:43:20;7.55;;;3.15;;
71125;SDS011;58785;55.566;38.058;2023-07-13T14:45:49;8.03;;;3.23;;
71125;SDS011;58785;55.566;38.058;2023-07-13T14:48:22;8.88;;;3.45;;
71125;SDS011;58785;55.566;38.058;2023-07-13T14:50:51;11.40;;;3.80;;
71125;SDS011;58785;55.566;38.058;2023-07-13T14:53:20;9.30;;;3.23;;
71125;SDS011;58785;55.566;38.058;2023-07-13T14:55:46;9.32;;;3.58;;
71125;SDS011;58785;55.566;38.058;2023-07-13T14:58:12;13.10;;;3.67;;
71125;SDS011;58785;55.566;38.058;2023-07-13T15:00:38;8.17;;;3.47;;
71125;SDS011;58785;55.566;38.058;2023-07-13T15:03:05;8.85;;;3.95;;
71125;SDS011;58785;55.566;38.058;2023-07-13T15:05:44;10.23;;;3.80;;
71125;SDS011;58785;55.566;38.058;2023-07-13T15:08:10;10.93;;;4.15;;
71125;SDS011;58785;55.566;38.058;2023-07-13T15:10:37;9.33;;;3.83;;
71125;SDS011;58785;55.566;38.058;2023-07-13T15:13:13;11.02;;;4.03;;
71125;SDS011;58785;55.566;38.058;2023-07-13T15:15:41;11.02;;;3.88;;